createdAt,value
2019-01-02T00:00:32.743Z,4.23
2019-01-02T00:05:36.396Z,5.23
2019-01-02T00:10:40.001Z,4.07
2019-01-02T00:15:43.618Z,4.23
2019-01-02T00:20:47.307Z,6.23
2019-01-02T00:25:52.088Z,4.23
2019-01-02T00:30:57.327Z,4.87
2019-01-02T00:36:01.060Z,5.43
2019-01-02T00:41:09.022Z,4.17
2019-01-02T00:46:15.614Z,4.30
2019-01-02T00:51:21.883Z,4.03
2019-01-02T00:56:25.869Z,4.07
2019-01-02T01:01:29.575Z,3.50
2019-01-02T01:06:33.478Z,4.40
2019-01-02T01:11:37.362Z,4.17
2019-01-02T01:16:43.484Z,4.90
2019-01-02T01:21:50.516Z,4.20
2019-01-02T01:26:54.130Z,3.23
2019-01-02T01:31:59.270Z,3.63
2019-01-02T01:37:02.892Z,2.70
2019-01-02T01:42:09.306Z,3.87
2019-01-02T01:47:12.933Z,5.20
2019-01-02T01:52:18.195Z,3.00
2019-01-02T01:57:24.007Z,2.83
2019-01-02T02:02:27.776Z,3.10
2019-01-02T02:07:33.023Z,2.73
2019-01-02T02:12:37.011Z,3.27
2019-01-02T02:17:41.210Z,3.40
2019-01-02T02:22:51.128Z,4.33
2019-01-02T02:27:56.680Z,5.33
2019-01-02T02:33:00.275Z,4.87
2019-01-02T02:38:03.963Z,4.73
2019-01-02T02:43:16.236Z,5.40
2019-01-02T02:48:19.836Z,4.10
2019-01-02T02:53:23.636Z,3.57
2019-01-02T02:58:30.750Z,7.40
2019-01-02T03:03:35.641Z,3.10
2019-01-02T03:08:44.921Z,6.73
2019-01-02T03:13:50.144Z,4.30
2019-01-02T03:18:56.651Z,5.90
2019-01-02T03:24:02.076Z,4.73
2019-01-02T03:29:14.394Z,5.77
2019-01-02T03:34:18.101Z,7.40
2019-01-02T03:39:21.852Z,4.67
2019-01-02T03:44:27.675Z,5.87
2019-01-02T03:49:30.987Z,5.40
2019-01-02T03:54:34.599Z,7.37
2019-01-02T03:59:41.191Z,4.63
2019-01-02T04:04:53.802Z,2.90
2019-01-02T04:10:00.660Z,6.67
2019-01-02T04:15:05.582Z,5.60
2019-01-02T04:20:09.309Z,5.77
2019-01-02T04:25:12.911Z,4.67
2019-01-02T04:30:18.215Z,4.37
2019-01-02T04:35:21.826Z,5.53
2019-01-02T04:40:28.143Z,3.20
2019-01-02T04:45:31.747Z,6.10
2019-01-02T04:50:47.136Z,3.57
2019-01-02T04:55:56.490Z,12.77
2019-01-02T05:01:02.931Z,4.30
2019-01-02T05:06:08.150Z,10.10
2019-01-02T05:11:17.228Z,6.90
2019-01-02T05:16:21.646Z,5.17
2019-01-02T05:21:25.323Z,7.43
2019-01-02T05:26:31.609Z,5.73
2019-01-02T05:31:37.741Z,4.30
2019-01-02T05:36:42.988Z,6.80
2019-01-02T05:41:47.580Z,8.20
2019-01-02T05:47:02.770Z,6.20
2019-01-02T05:52:15.206Z,6.17
2019-01-02T05:57:28.055Z,7.77
2019-01-02T06:02:36.296Z,10.03
2019-01-02T06:07:40.016Z,5.60
2019-01-02T06:12:46.591Z,7.07
2019-01-02T06:17:51.740Z,11.97
2019-01-02T06:22:55.478Z,8.73
2019-01-02T06:27:59.095Z,11.90
2019-01-02T06:33:08.374Z,12.87
2019-01-02T06:38:17.630Z,12.67
2019-01-02T06:43:21.239Z,12.67
2019-01-02T06:48:27.851Z,8.13
2019-01-02T06:53:31.451Z,9.90
2019-01-02T06:58:43.470Z,13.87
2019-01-02T07:03:50.032Z,11.33
2019-01-02T07:08:56.398Z,11.73
2019-01-02T07:14:04.087Z,9.40
2019-01-02T07:19:07.687Z,6.90
2019-01-02T07:24:12.993Z,14.07
2019-01-02T07:29:16.613Z,6.80
2019-01-02T07:34:23.005Z,8.23
2019-01-02T07:39:45.791Z,8.47
2019-01-02T07:44:56.773Z,9.93
2019-01-02T07:50:09.297Z,8.63
2019-01-02T07:55:32.329Z,9.43
2019-01-02T08:00:53.944Z,12.10
2019-01-02T08:06:18.535Z,7.83
2019-01-02T08:11:30.829Z,10.27
2019-01-02T08:16:46.662Z,9.20
2019-01-02T08:22:09.541Z,6.10
2019-01-02T08:27:25.190Z,10.20
2019-01-02T08:32:31.942Z,15.60
2019-01-02T08:37:50.512Z,7.63
2019-01-02T08:43:24.379Z,15.20
2019-01-02T08:48:33.641Z,19.87
2019-01-02T08:53:43.836Z,11.57
2019-01-02T08:59:06.068Z,15.63
2019-01-02T09:04:21.506Z,15.93
2019-01-02T09:10:02.477Z,17.70
2019-01-02T09:15:20.818Z,10.37
2019-01-02T09:20:27.487Z,8.93
2019-01-02T09:25:50.354Z,7.97
2019-01-02T09:31:08.611Z,14.43
2019-01-02T09:36:39.368Z,11.13
2019-01-02T09:41:57.810Z,19.50
2019-01-02T09:47:23.598Z,18.60
2019-01-02T09:53:02.523Z,8.27
2019-01-02T09:58:21.159Z,13.60
2019-01-02T10:03:48.926Z,14.30
2019-01-02T10:09:31.450Z,13.50
2019-01-02T10:15:03.397Z,11.30
2019-01-02T10:20:26.345Z,14.63
2019-01-02T10:25:47.977Z,10.73
2019-01-02T10:31:23.154Z,10.70
2019-01-02T10:36:50.527Z,12.33
2019-01-02T10:42:22.548Z,10.60
2019-01-02T10:47:34.946Z,20.53
2019-01-02T10:53:05.263Z,12.27
2019-01-02T10:58:39.445Z,16.60
2019-01-02T11:04:13.235Z,13.63
2019-01-02T11:09:19.939Z,10.80
2019-01-02T11:14:32.570Z,10.93
2019-01-02T11:20:01.592Z,10.73
2019-01-02T11:25:17.165Z,11.50
2019-01-02T11:30:23.824Z,13.13
2019-01-02T11:35:38.027Z,14.17
2019-01-02T11:41:06.904Z,12.10
2019-01-02T11:46:13.306Z,11.17
2019-01-02T11:51:17.323Z,9.03
2019-01-02T11:56:23.996Z,17.43
2019-01-02T12:01:29.516Z,15.33
2019-01-02T12:06:32.838Z,20.60
2019-01-02T12:11:36.443Z,13.20
2019-01-02T12:16:40.158Z,9.57
2019-01-02T12:21:49.428Z,14.80
2019-01-02T12:26:53.028Z,12.37
2019-01-02T12:31:56.639Z,12.13
2019-01-02T12:37:00.255Z,17.10
2019-01-02T12:42:06.807Z,10.90
2019-01-02T12:47:10.401Z,12.27
2019-01-02T12:52:14.002Z,10.60
2019-01-02T12:57:18.081Z,15.90
2019-01-02T13:02:33.423Z,13.67
2019-01-02T13:07:44.512Z,13.80
2019-01-02T13:12:51.362Z,18.57
2019-01-02T13:18:19.397Z,11.43
2019-01-02T13:23:34.774Z,13.20
2019-01-02T13:28:53.378Z,12.07
2019-01-02T13:34:00.050Z,15.93
2019-01-02T13:39:09.236Z,10.23
2019-01-02T13:44:27.424Z,14.60
2019-01-02T13:49:54.745Z,15.07
2019-01-02T13:55:01.375Z,11.83
2019-01-02T14:00:13.815Z,14.10
2019-01-02T14:05:23.766Z,14.73
2019-01-02T14:10:30.977Z,12.30
2019-01-02T14:15:36.227Z,9.13
2019-01-02T14:20:42.526Z,8.80
2019-01-02T14:25:47.816Z,13.37
2019-01-02T14:30:53.077Z,8.87
2019-01-02T14:35:56.682Z,8.83
2019-01-02T14:41:00.325Z,11.80
2019-01-02T14:46:05.014Z,13.60
2019-01-02T14:51:12.975Z,15.40
2019-01-02T14:56:16.588Z,9.60
2019-01-02T15:01:20.236Z,9.90
2019-01-02T15:06:29.568Z,9.63
2019-01-02T15:11:33.252Z,11.97
2019-01-02T15:16:36.984Z,12.77
2019-01-02T15:21:43.592Z,11.17
2019-01-02T15:26:49.746Z,14.03
2019-01-02T15:31:53.474Z,9.50
2019-01-02T15:36:57.061Z,15.27
2019-01-02T15:42:00.659Z,12.07
2019-01-02T15:47:08.536Z,15.80
2019-01-02T15:52:11.230Z,11.83
2019-01-02T15:57:20.673Z,13.23
2019-01-02T16:02:27.385Z,15.57
2019-01-02T16:07:30.997Z,12.33
2019-01-02T16:12:37.458Z,11.53
2019-01-02T16:17:41.102Z,16.27
2019-01-02T16:22:44.760Z,13.30
2019-01-02T16:27:48.373Z,10.50
2019-01-02T16:32:51.996Z,11.03
2019-01-02T16:37:55.626Z,7.17
2019-01-02T16:42:59.229Z,13.17
2019-01-02T16:48:03.737Z,10.23
2019-01-02T16:53:07.531Z,11.03
2019-01-02T16:58:19.632Z,12.20
2019-01-02T17:03:23.249Z,11.73
2019-01-02T17:08:28.501Z,9.77
2019-01-02T17:13:32.203Z,10.13
2019-01-02T17:18:35.860Z,9.97
2019-01-02T17:23:45.012Z,12.23
2019-01-02T17:28:50.744Z,8.87
2019-01-02T17:33:54.505Z,11.27
2019-01-02T17:38:58.678Z,16.30
2019-01-02T17:44:03.939Z,12.67
2019-01-02T17:49:09.948Z,14.70
2019-01-02T17:54:13.671Z,12.60
2019-01-02T17:59:17.553Z,11.77
2019-01-02T18:04:21.163Z,20.50
2019-01-02T18:09:30.316Z,14.20
2019-01-02T18:14:33.958Z,19.07
2019-01-02T18:19:38.077Z,21.63
2019-01-02T18:24:42.306Z,17.50
2019-01-02T18:29:45.918Z,15.53
2019-01-02T18:34:49.754Z,19.97
2019-01-02T18:39:53.430Z,18.67
2019-01-02T18:44:57.129Z,15.50
2019-01-02T18:50:00.725Z,8.43
2019-01-02T18:55:07.231Z,8.77
2019-01-02T19:00:11.844Z,11.93
2019-01-02T19:05:15.453Z,13.10
2019-01-02T19:10:21.781Z,12.30
2019-01-02T19:15:25.377Z,9.00
2019-01-02T19:20:31.694Z,10.20
2019-01-02T19:25:38.065Z,11.63
2019-01-02T19:30:44.497Z,10.17
2019-01-02T19:35:51.048Z,11.23
2019-01-02T19:40:54.708Z,16.93
2019-01-02T19:45:58.297Z,11.27
2019-01-02T19:51:04.758Z,20.67
2019-01-02T19:56:08.416Z,16.97
2019-01-02T20:01:12.055Z,9.77
2019-01-02T20:06:19.998Z,13.43
2019-01-02T20:11:23.623Z,11.50
2019-01-02T20:16:29.698Z,16.33
2019-01-02T20:21:34.926Z,13.80
2019-01-02T20:26:38.850Z,13.10
2019-01-02T20:31:42.460Z,16.30
2019-01-02T20:36:46.105Z,15.07
2019-01-02T20:41:53.952Z,13.87
2019-01-02T20:46:57.549Z,17.70
2019-01-02T20:52:01.181Z,18.80
2019-01-02T20:57:09.612Z,18.53
2019-01-02T21:02:13.198Z,16.00
2019-01-02T21:07:16.948Z,14.30
2019-01-02T21:12:21.023Z,12.47
2019-01-02T21:17:25.094Z,10.60
2019-01-02T21:22:28.691Z,18.37
2019-01-02T21:27:32.528Z,10.50
2019-01-02T21:32:42.408Z,10.63
2019-01-02T21:37:46.106Z,16.60
2019-01-02T21:42:51.353Z,14.60
2019-01-02T21:47:55.871Z,9.80
2019-01-02T21:52:59.518Z,12.93
2019-01-02T21:58:07.978Z,12.80
2019-01-02T22:03:28.397Z,12.20
2019-01-02T22:08:32.027Z,12.80
2019-01-02T22:13:37.302Z,11.87
2019-01-02T22:18:40.923Z,13.50
2019-01-02T22:23:44.575Z,9.77
2019-01-02T22:28:53.833Z,11.77
2019-01-02T22:33:58.992Z,11.90
2019-01-02T22:39:02.633Z,14.33
2019-01-02T22:44:06.266Z,15.80
2019-01-02T22:49:11.187Z,13.40
2019-01-02T22:54:14.757Z,10.47
2019-01-02T22:59:20.884Z,11.77
2019-01-02T23:04:34.758Z,15.53
2019-01-02T23:09:40.115Z,13.07
2019-01-02T23:15:01.552Z,13.63
2019-01-02T23:20:19.732Z,10.67
2019-01-02T23:25:33.163Z,13.23
2019-01-02T23:30:40.899Z,12.73
2019-01-02T23:36:01.292Z,17.67
2019-01-02T23:41:25.144Z,14.97
2019-01-02T23:46:46.537Z,15.40
2019-01-02T23:51:57.666Z,10.93
2019-01-02T23:57:14.093Z,14.07
